createdAt,value
2018-11-28T00:15:38.550Z,-0.10
2018-11-28T00:35:47.130Z,-0.10
2018-11-28T01:10:15.666Z,0.00
2018-11-28T01:14:19.354Z,0.00
2018-11-28T02:59:07.409Z,0.00
2018-11-28T03:03:11.074Z,0.00
2018-11-28T03:40:43.311Z,-0.10
2018-11-28T03:44:47.029Z,-0.10
2018-11-28T03:48:50.774Z,-0.20
2018-11-28T03:57:02.022Z,-1.10
2018-11-28T04:03:21.623Z,-1.20
2018-11-28T04:07:25.322Z,-1.30
2018-11-28T04:11:29.042Z,-1.30
2018-11-28T04:15:32.779Z,-1.40
2018-11-28T04:19:36.521Z,-1.40
2018-11-28T04:46:12.322Z,-0.50
2018-11-28T04:50:16.100Z,-0.40
2018-11-28T05:00:56.346Z,-0.40
2018-11-28T06:03:09.784Z,-0.40
2018-11-28T06:07:13.525Z,-0.40
2018-11-28T08:25:06.254Z,0.30
2018-11-28T09:08:29.722Z,0.50
2018-11-28T09:12:33.371Z,0.30
2018-11-28T09:21:17.685Z,0.20
2018-11-28T09:25:21.647Z,0.20
2018-11-28T09:29:25.449Z,0.30
2018-11-28T09:37:35.034Z,0.30
2018-11-28T09:47:51.284Z,0.50
2018-11-28T09:51:54.982Z,0.50
2018-11-28T09:55:58.667Z,0.60
2018-11-28T10:00:02.382Z,0.80
2018-11-28T10:04:06.813Z,0.80
2018-11-28T10:08:10.463Z,1.00
2018-11-28T10:12:14.187Z,1.10
2018-11-28T10:16:17.901Z,1.10
2018-11-28T10:20:21.735Z,1.20
2018-11-28T10:24:25.467Z,1.30
2018-11-28T10:28:29.137Z,1.30
2018-11-28T10:36:22.209Z,1.50
2018-11-28T10:40:26.144Z,1.50
2018-11-28T10:46:58.447Z,1.80
2018-11-28T10:51:02.178Z,1.80
2018-11-28T10:56:44.344Z,2.20
2018-11-28T11:00:53.897Z,2.30
2018-11-28T11:05:02.684Z,2.50
2018-11-28T11:09:14.133Z,2.60
2018-11-28T11:13:23.314Z,2.60
2018-11-28T11:17:27.047Z,2.70
2018-11-28T11:21:30.802Z,2.80
2018-11-28T11:25:34.552Z,2.90
2018-11-28T11:29:38.366Z,2.90
2018-11-28T11:33:42.046Z,3.00
2018-11-28T11:37:45.798Z,3.00
2018-11-28T11:41:49.545Z,3.10
2018-11-28T11:45:53.275Z,3.20
2018-11-28T11:49:57.019Z,3.30
2018-11-28T11:54:00.729Z,3.40
2018-11-28T11:58:04.454Z,3.50
2018-11-28T12:02:08.206Z,3.50
2018-11-28T12:06:11.917Z,3.50
2018-11-28T12:12:32.469Z,3.60
2018-11-28T12:16:36.185Z,3.70
2018-11-28T12:20:42.821Z,3.70
2018-11-28T12:24:46.505Z,3.70
2018-11-28T12:28:50.202Z,3.80
2018-11-28T12:32:53.909Z,3.90
2018-11-28T12:36:57.643Z,3.90
2018-11-28T12:41:01.344Z,4.00
2018-11-28T12:49:07.895Z,4.10
2018-11-28T12:53:12.946Z,4.20
2018-11-28T12:57:16.671Z,4.20
2018-11-28T13:01:20.370Z,4.20
2018-11-28T13:05:25.349Z,4.30
2018-11-28T13:09:29.087Z,4.30
2018-11-28T13:21:35.806Z,4.20
2018-11-28T13:25:39.535Z,4.30
2018-11-28T13:33:22.201Z,4.30
2018-11-28T13:37:25.914Z,4.30
2018-11-28T13:41:29.598Z,4.30
2018-11-28T13:45:34.489Z,4.30
2018-11-28T13:49:38.258Z,4.30
2018-11-28T13:53:41.994Z,4.30
2018-11-28T14:01:47.155Z,4.30
2018-11-28T14:05:50.824Z,4.30
2018-11-28T14:09:54.497Z,4.30
2018-11-28T14:13:58.187Z,4.40
2018-11-28T14:18:03.948Z,4.30
2018-11-28T14:26:05.250Z,4.20
2018-11-28T14:30:12.662Z,4.00
2018-11-28T14:34:16.410Z,4.00
2018-11-28T14:38:20.078Z,3.90
2018-11-28T14:42:23.774Z,3.80
2018-11-28T14:46:27.499Z,3.70
2018-11-28T14:54:24.715Z,3.60
2018-11-28T14:58:28.456Z,3.50
2018-11-28T15:02:32.287Z,3.40
2018-11-28T15:06:43.877Z,3.40
2018-11-28T15:10:58.266Z,3.40
2018-11-28T15:15:01.953Z,3.30
2018-11-28T15:19:06.322Z,3.30
2018-11-28T15:23:09.572Z,3.30
2018-11-28T15:27:13.265Z,3.20
2018-11-28T15:34:04.965Z,3.10
2018-11-28T15:38:09.059Z,3.00
2018-11-28T15:42:12.732Z,3.00
2018-11-28T15:46:16.454Z,3.00
2018-11-28T15:50:20.216Z,3.00
2018-11-28T16:02:31.597Z,2.90
2018-11-28T16:06:35.299Z,2.90
2018-11-28T16:10:43.733Z,2.90
2018-11-28T16:20:25.716Z,2.90
2018-11-28T16:24:29.471Z,2.90
2018-11-28T16:28:33.179Z,2.90
2018-11-28T16:32:36.890Z,2.90
2018-11-28T16:36:40.583Z,3.00
2018-11-28T16:40:44.288Z,3.10
2018-11-28T16:44:47.989Z,3.20
2018-11-28T16:57:44.091Z,3.50
2018-11-28T17:16:07.980Z,3.70
2018-11-28T17:23:14.642Z,3.80
2018-11-28T17:29:36.875Z,3.80
2018-11-28T17:33:40.530Z,3.90
2018-11-28T17:37:44.233Z,3.90
2018-11-28T17:41:48.325Z,3.90
2018-11-28T17:49:00.193Z,3.90
2018-11-28T18:16:40.043Z,4.00
2018-11-28T18:27:14.785Z,4.00
2018-11-28T18:31:18.433Z,4.10
2018-11-28T18:39:44.595Z,4.20
2018-11-28T18:43:48.301Z,4.20
2018-11-28T18:47:52.010Z,4.20
2018-11-28T18:51:55.702Z,4.30
2018-11-28T18:55:59.404Z,4.30
2018-11-28T19:00:03.150Z,4.40
2018-11-28T19:05:33.268Z,4.30
2018-11-28T19:09:42.322Z,4.40
2018-11-28T19:13:46.041Z,4.40
2018-11-28T19:17:49.898Z,4.40
2018-11-28T19:21:53.554Z,4.40
2018-11-28T19:25:57.263Z,4.40
2018-11-28T19:30:00.959Z,4.50
2018-11-28T19:34:04.694Z,4.50
2018-11-28T19:38:10.616Z,4.50
2018-11-28T19:44:27.542Z,4.60
2018-11-28T19:48:31.242Z,4.60
2018-11-28T19:59:05.488Z,4.70
2018-11-28T20:03:09.348Z,5.00
2018-11-28T20:07:12.999Z,5.30
2018-11-28T20:11:16.776Z,5.40
2018-11-28T20:15:25.088Z,5.10
2018-11-28T20:19:28.826Z,5.20
2018-11-28T20:23:32.706Z,5.10
2018-11-28T20:27:36.371Z,5.10
2018-11-28T20:31:40.074Z,5.10
2018-11-28T20:35:44.996Z,5.10
2018-11-28T20:39:48.687Z,5.00
2018-11-28T20:47:15.858Z,5.00
2018-11-28T20:55:55.306Z,5.00
2018-11-28T21:04:14.397Z,4.90
2018-11-28T21:08:18.161Z,4.90
2018-11-28T21:12:22.721Z,4.90
2018-11-28T21:16:26.505Z,4.90
2018-11-28T21:20:30.294Z,4.90
2018-11-28T21:24:34.049Z,4.90
2018-11-28T21:28:37.761Z,4.90
2018-11-28T21:32:41.582Z,4.90
2018-11-28T21:36:45.278Z,5.10
2018-11-28T21:40:49.010Z,5.50
2018-11-28T21:44:52.795Z,5.60
2018-11-28T21:48:56.505Z,5.70
2018-11-28T21:53:00.223Z,5.80
2018-11-28T21:57:04.014Z,5.90
2018-11-28T22:01:07.814Z,5.90
2018-11-28T22:05:12.548Z,6.00
2018-11-28T22:09:16.282Z,6.00
2018-11-28T22:13:20.095Z,6.10
2018-11-28T22:17:23.866Z,6.20
2018-11-28T22:21:27.599Z,6.10
2018-11-28T22:25:31.306Z,6.30
2018-11-28T22:29:35.058Z,6.30
2018-11-28T22:33:38.873Z,6.30
2018-11-28T22:37:42.674Z,6.30
2018-11-28T22:41:46.389Z,6.30
2018-11-28T22:45:50.089Z,6.30
2018-11-28T22:49:53.871Z,6.30
2018-11-28T22:53:57.530Z,6.40
2018-11-28T22:58:01.247Z,6.40
2018-11-28T23:03:09.666Z,6.30
2018-11-28T23:07:13.369Z,6.40
2018-11-28T23:11:17.117Z,6.30
2018-11-28T23:15:20.863Z,6.40
2018-11-28T23:19:24.574Z,6.40
2018-11-28T23:23:28.405Z,6.50
2018-11-28T23:27:32.368Z,6.50
2018-11-28T23:31:36.139Z,6.60
2018-11-28T23:35:39.866Z,6.60
2018-11-28T23:39:43.562Z,6.50
2018-11-28T23:43:47.352Z,6.50
2018-11-28T23:47:51.222Z,6.60
2018-11-28T23:51:55.008Z,6.60
2018-11-28T23:55:58.753Z,6.60
